This is the latest recevied weather packets stored in our database for station/object PA3DZX-13. If no packets are shown the sender has not sent any weather packets the latest 10 day(s).
| Time | Temp. | Humidity | Pressure | Rain* | Wind** | Luminosity | Snow |
|---|---|---|---|---|---|---|---|
| 1777684031 | 11.67° C | 54% | 1020.6 hPa | 0 mm | - | - | - |
| 1777683131 | 11.67° C | 53% | 1020.8 hPa | 0 mm | - | - | - |
| 1777682231 | 12.78° C | 53% | 1020.9 hPa | 0 mm | - | - | - |
| 1777681329 | 12.78° C | 51% | 1020.9 hPa | 0 mm | - | - | - |
| 1777680430 | 12.78° C | 51% | 1021 hPa | 0 mm | - | - | - |
| 1777679529 | 10.56° C | 60% | 1021.2 hPa | 0 mm | - | - | - |
| 1777678628 | 10° C | 65% | 1021.3 hPa | 0 mm | - | - | - |
| 1777677727 | 10.56° C | 62% | 1021.2 hPa | 0 mm | - | - | - |
| 1777676827 | 10° C | 65% | 1021.4 hPa | 0 mm | - | - | - |
| 1777675927 | 8.89° C | 75% | 1021.5 hPa | 0 mm | - | - | - |
| 1777675027 | 7.78° C | 80% | 1021.5 hPa | 0 mm | - | - | - |
| 1777674127 | 7.78° C | 81% | 1021.6 hPa | 0 mm | - | - | - |
| 1777673227 | 8.89° C | 80% | 1021.7 hPa | 0 mm | - | - | - |
| 1777672327 | 8.89° C | 81% | 1021.7 hPa | 0 mm | - | - | - |
| 1777671427 | 8.89° C | 82% | 1021.7 hPa | 0 mm | - | - | - |
| 1777670526 | 8.89° C | 80% | 1021.7 hPa | 0 mm | - | - | - |
| 1777669626 | 10° C | 74% | 1021.8 hPa | 0 mm | - | - | - |
| 1777668726 | 10.56° C | 70% | 1021.9 hPa | 0 mm | - | - | - |
| 1777667826 | 11.67° C | 64% | 1022 hPa | 0 mm | - | - | - |
| 1777666925 | 11.67° C | 64% | 1022 hPa | 0 mm | - | - | - |
| 1777666024 | 11.67° C | 66% | 1021.9 hPa | 0 mm | - | - | - |
| 1777665125 | 12.78° C | 65% | 1021.9 hPa | 0 mm | - | - | - |
| 1777664224 | 15.56° C | 50% | 1021.9 hPa | 0 mm | - | - | - |
| 1777663323 | 17.78° C | 42% | 1021.8 hPa | 0 mm | - | - | - |
| 1777662424 | 18.89° C | 37% | 1021.7 hPa | 0 mm | - | - | - |
* Rain latest hour (hover to see other rain measurements)
** Current wind speed in m/s (hover to see current wind gust speed)